createdAt,value
2023-02-15T00:03:13.144Z,102727.34
2023-02-15T00:08:16.341Z,102726.19
2023-02-15T00:13:18.073Z,102716.72
2023-02-15T00:18:23.320Z,102727.84
2023-02-15T00:23:35.066Z,102720.31
2023-02-15T00:28:39.575Z,102723.25
2023-02-15T00:33:41.869Z,102714.06
2023-02-15T00:38:45.468Z,102707.41
2023-02-15T00:43:47.246Z,102710.06
2023-02-15T00:48:49.173Z,102708.75
2023-02-15T00:59:10.115Z,102691.00
2023-02-15T01:04:19.163Z,102701.72
2023-02-15T01:09:22.574Z,102699.69
2023-02-15T01:14:24.809Z,102697.66
2023-02-15T01:19:29.991Z,102692.03
2023-02-15T01:24:33.728Z,102676.22
2023-02-15T01:29:35.510Z,102683.78
2023-02-15T01:34:38.259Z,102663.91
2023-02-15T01:39:41.764Z,102662.22
2023-02-15T01:44:57.748Z,102667.66
2023-02-15T01:50:15.596Z,102650.38
2023-02-15T01:55:20.210Z,102645.06
2023-02-15T02:00:37.757Z,102639.84
2023-02-15T02:05:46.772Z,102622.69
2023-02-15T02:11:15.023Z,102615.47
2023-02-15T02:16:24.538Z,102612.88
2023-02-15T02:21:52.293Z,102613.53
2023-02-15T02:27:42.403Z,102609.72
2023-02-15T02:33:21.716Z,102604.75
2023-02-15T02:38:34.047Z,102588.94
2023-02-15T02:43:44.813Z,102594.69
2023-02-15T02:48:50.241Z,102591.63
2023-02-15T02:54:00.513Z,102578.22
2023-02-15T02:59:08.282Z,102578.09
2023-02-15T03:04:16.572Z,102577.44
2023-02-15T03:09:26.089Z,102576.84
2023-02-15T03:14:29.333Z,102566.03
2023-02-15T03:19:37.845Z,102560.59
2023-02-15T03:24:45.242Z,102562.88
2023-02-15T03:29:51.373Z,102547.75
2023-02-15T03:34:55.306Z,102547.06
2023-02-15T03:40:02.138Z,102551.34
2023-02-15T03:45:10.668Z,102555.09
2023-02-15T03:50:19.143Z,102552.50
2023-02-15T03:55:21.610Z,102542.88
2023-02-15T04:00:26.157Z,102548.63
2023-02-15T04:05:29.670Z,102549.09
2023-02-15T04:10:31.816Z,102557.00
2023-02-15T04:15:33.926Z,102549.97
2023-02-15T04:20:37.461Z,102543.56
2023-02-15T04:25:39.575Z,102537.34
2023-02-15T04:30:42.031Z,102539.75
2023-02-15T04:35:45.938Z,102534.19
2023-02-15T04:40:51.252Z,102524.22
2023-02-15T04:45:53.242Z,102506.53
2023-02-15T04:50:56.993Z,102494.97
2023-02-15T04:55:59.163Z,102487.63
2023-02-15T05:01:01.663Z,102487.84
2023-02-15T05:06:05.544Z,102482.75
2023-02-15T05:11:07.666Z,102472.19
2023-02-15T05:16:09.559Z,102465.19
2023-02-15T05:21:13.188Z,102470.69
2023-02-15T05:26:18.773Z,102460.50
2023-02-15T05:31:21.572Z,102469.91
2023-02-15T05:36:24.922Z,102467.00
2023-02-15T05:41:27.504Z,102464.69
2023-02-15T05:46:29.673Z,102458.78
2023-02-15T05:51:33.441Z,102464.69
2023-02-15T05:56:35.943Z,102462.28
2023-02-15T06:01:37.830Z,102454.97
2023-02-15T06:06:41.271Z,102457.19
2023-02-15T06:11:43.908Z,102443.78
2023-02-15T06:16:45.764Z,102460.28
2023-02-15T06:21:49.708Z,102454.78
2023-02-15T06:26:51.841Z,102452.78
2023-02-15T06:31:54.309Z,102448.97
2023-02-15T06:36:58.214Z,102458.78
2023-02-15T06:42:00.482Z,102446.66
2023-02-15T06:47:02.998Z,102443.97
2023-02-15T06:52:07.383Z,102456.00
2023-02-15T06:57:09.426Z,102442.34
2023-02-15T07:02:14.725Z,102438.63
2023-02-15T07:07:18.047Z,102438.53
2023-02-15T07:12:20.277Z,102433.28
2023-02-15T07:17:37.474Z,102441.59
2023-02-15T07:22:41.127Z,102439.69
2023-02-15T07:27:46.399Z,102435.38
2023-02-15T07:32:48.539Z,102427.81
2023-02-15T07:37:51.813Z,102422.50
2023-02-15T07:42:54.110Z,102418.28
2023-02-15T07:47:56.088Z,102409.34
2023-02-15T07:52:59.730Z,102402.63
2023-02-15T07:58:02.171Z,102408.75
2023-02-15T08:03:04.815Z,102394.56
2023-02-15T08:08:08.841Z,102387.91
2023-02-15T08:13:10.724Z,102394.56
2023-02-15T08:18:12.978Z,102388.69
2023-02-15T08:23:16.704Z,102388.47
2023-02-15T08:28:18.795Z,102385.63
2023-02-15T08:33:20.878Z,102384.56
2023-02-15T08:38:24.479Z,102371.38
2023-02-15T08:43:26.272Z,102374.53
2023-02-15T08:48:28.254Z,102360.16
2023-02-15T08:53:31.830Z,102360.22
2023-02-15T08:58:34.935Z,102362.28
2023-02-15T09:03:37.247Z,102359.19
2023-02-15T09:08:41.227Z,102348.56
2023-02-15T09:13:44.086Z,102337.53
2023-02-15T09:18:46.627Z,102344.34
2023-02-15T09:23:51.667Z,102338.50
2023-02-15T09:28:55.174Z,102334.81
2023-02-15T09:33:57.630Z,102333.72
2023-02-15T09:39:07.203Z,102321.22
2023-02-15T09:44:22.063Z,102339.66
2023-02-15T09:49:32.509Z,102333.09
2023-02-15T09:54:49.881Z,102338.03
2023-02-15T10:00:00.601Z,102346.81
2023-02-15T10:05:16.797Z,102332.47
2023-02-15T10:10:31.544Z,102315.53
2023-02-15T10:15:54.417Z,102320.09
2023-02-15T10:21:04.250Z,102312.19
2023-02-15T10:26:17.843Z,102319.56
2023-02-15T10:31:27.630Z,102304.91
2023-02-15T10:36:44.630Z,102304.50
2023-02-15T10:41:55.269Z,102297.63
2023-02-15T10:47:18.498Z,102289.22
2023-02-15T10:52:33.925Z,102281.75
2023-02-15T10:57:45.742Z,102284.13
2023-02-15T11:03:10.527Z,102272.63
2023-02-15T11:08:13.875Z,102269.00
2023-02-15T11:13:20.499Z,102257.16
2023-02-15T11:18:29.284Z,102249.06
2023-02-15T11:23:40.053Z,102248.09
2023-02-15T11:28:48.512Z,102241.47
2023-02-15T11:33:55.364Z,102230.34
2023-02-15T11:39:02.028Z,102207.88
2023-02-15T11:44:12.892Z,102209.53
2023-02-15T11:49:24.704Z,102213.13
2023-02-15T11:54:31.130Z,102205.34
2023-02-15T11:59:38.593Z,102201.66
2023-02-15T12:04:45.653Z,102183.50
2023-02-15T12:09:53.191Z,102183.25
2023-02-15T12:14:58.418Z,102180.06
2023-02-15T12:20:03.604Z,102171.84
2023-02-15T12:25:22.317Z,102168.13
2023-02-15T12:36:03.580Z,102153.16
2023-02-15T12:41:22.977Z,102149.50
2023-02-15T12:46:27.524Z,102141.69
2023-02-15T12:51:29.385Z,102136.56
2023-02-15T12:56:31.246Z,102132.81
2023-02-15T13:01:35.036Z,102127.06
2023-02-15T13:06:37.969Z,102114.47
2023-02-15T13:11:42.770Z,102115.13
2023-02-15T13:16:48.581Z,102097.13
2023-02-15T13:21:54.296Z,102092.69
2023-02-15T13:27:14.665Z,102089.00
2023-02-15T13:32:28.144Z,102083.66
2023-02-15T13:37:51.904Z,102077.44
2023-02-15T13:42:58.196Z,102064.84
2023-02-15T13:48:12.835Z,102058.63
2023-02-15T13:53:36.259Z,102072.13
2023-02-15T13:59:00.025Z,102072.31
2023-02-15T14:04:25.550Z,102066.13
2023-02-15T14:09:41.867Z,102073.25
2023-02-15T14:15:09.978Z,102074.13
2023-02-15T14:20:21.408Z,102063.44
2023-02-15T14:25:31.506Z,102058.13
2023-02-15T14:30:38.005Z,102050.13
2023-02-15T14:35:42.527Z,102048.28
2023-02-15T14:40:54.789Z,102052.53
2023-02-15T14:46:03.960Z,102048.91
2023-02-15T14:51:07.658Z,102040.94
2023-02-15T14:56:22.718Z,102033.72
2023-02-15T15:01:28.879Z,102024.75
2023-02-15T15:06:34.718Z,102031.00
2023-02-15T15:11:44.838Z,102026.66
2023-02-15T15:16:52.538Z,102022.28
2023-02-15T15:22:04.573Z,102041.59
2023-02-15T15:27:42.602Z,102036.09
2023-02-15T15:32:52.160Z,102045.63
2023-02-15T15:38:17.439Z,102040.81
2023-02-15T15:43:59.633Z,102033.41
2023-02-15T15:49:04.318Z,102033.13
2023-02-15T15:54:15.013Z,102035.31
2023-02-15T15:59:22.730Z,102027.69
2023-02-15T16:04:27.570Z,102015.44
2023-02-15T16:09:31.484Z,102023.34
2023-02-15T16:14:37.215Z,102017.63
2023-02-15T16:19:41.374Z,102016.69
2023-02-15T16:25:14.030Z,102005.13
2023-02-15T16:30:23.348Z,102016.53
2023-02-15T16:35:55.632Z,102025.19
2023-02-15T16:40:59.453Z,102023.47
2023-02-15T16:46:05.883Z,102022.78
2023-02-15T16:51:08.963Z,102024.41
2023-02-15T16:56:12.473Z,102018.41
2023-02-15T17:01:16.515Z,102018.47
2023-02-15T17:06:23.585Z,102010.75
2023-02-15T17:11:36.422Z,102000.44
2023-02-15T17:16:51.335Z,102003.47
2023-02-15T17:21:56.452Z,102002.09
2023-02-15T17:27:04.889Z,102006.47
2023-02-15T17:32:16.511Z,101995.22
2023-02-15T17:37:30.016Z,102010.03
2023-02-15T17:42:33.584Z,102010.50
2023-02-15T17:47:36.054Z,102005.63
2023-02-15T17:53:02.951Z,102011.25
2023-02-15T17:58:22.346Z,102003.59
2023-02-15T18:03:25.942Z,101997.88
2023-02-15T18:08:28.879Z,102007.69
2023-02-15T18:13:32.545Z,102003.78
2023-02-15T18:18:34.694Z,102006.00
2023-02-15T18:23:37.052Z,101998.69
2023-02-15T18:34:26.942Z,101986.94
2023-02-15T18:39:37.488Z,101991.03
2023-02-15T18:44:42.267Z,101993.91
2023-02-15T18:49:52.553Z,101994.09
2023-02-15T18:55:04.850Z,102004.13
2023-02-15T19:00:14.319Z,101998.47
2023-02-15T19:05:16.896Z,101984.84
2023-02-15T19:10:21.176Z,101997.66
2023-02-15T19:15:26.269Z,101985.91
2023-02-15T19:20:39.188Z,101973.38
2023-02-15T19:25:42.518Z,101968.78
2023-02-15T19:30:46.762Z,101963.03
2023-02-15T19:35:56.413Z,101948.91
2023-02-15T19:41:03.602Z,101942.06
2023-02-15T19:46:15.251Z,101946.41
2023-02-15T19:51:19.147Z,101936.13
2023-02-15T19:56:23.717Z,101934.22
2023-02-15T20:01:28.533Z,101923.59
2023-02-15T20:06:31.116Z,101908.72
2023-02-15T20:11:37.209Z,101920.56
2023-02-15T20:16:42.077Z,101913.69
2023-02-15T20:21:46.978Z,101909.94
2023-02-15T20:26:49.957Z,101904.75
2023-02-15T20:31:55.444Z,101898.34
2023-02-15T20:36:58.083Z,101900.66
2023-02-15T20:42:00.496Z,101899.25
2023-02-15T20:47:04.546Z,101914.75
2023-02-15T20:52:18.493Z,101911.41
2023-02-15T20:57:21.309Z,101917.06
2023-02-15T21:02:25.550Z,101916.50
2023-02-15T21:07:28.153Z,101909.03
2023-02-15T21:12:30.908Z,101906.22
2023-02-15T21:17:34.986Z,101912.31
2023-02-15T21:22:37.585Z,101907.69
2023-02-15T21:27:40.141Z,101897.47
2023-02-15T21:32:43.857Z,101900.94
2023-02-15T21:37:48.533Z,101905.50
2023-02-15T21:42:50.632Z,101921.16
2023-02-15T21:47:53.792Z,101915.00
2023-02-15T21:52:56.797Z,101914.50
2023-02-15T21:57:58.927Z,101919.88
2023-02-15T22:03:02.918Z,101906.03
2023-02-15T22:08:11.422Z,101902.78
2023-02-15T22:13:15.872Z,101903.13
2023-02-15T22:18:22.280Z,101898.69
2023-02-15T22:23:24.437Z,101904.38
2023-02-15T22:28:31.996Z,101908.00
2023-02-15T22:33:35.684Z,101894.13
2023-02-15T22:38:38.046Z,101891.19
2023-02-15T22:43:42.074Z,101887.06
2023-02-15T22:48:47.151Z,101877.19
2023-02-15T22:53:49.049Z,101887.69
2023-02-15T22:58:50.858Z,101887.59
2023-02-15T23:03:54.712Z,101889.94
2023-02-15T23:08:56.940Z,101893.16
2023-02-15T23:13:58.783Z,101879.81
2023-02-15T23:19:02.910Z,101879.84
2023-02-15T23:24:17.698Z,101888.03
2023-02-15T23:29:21.942Z,101893.94
2023-02-15T23:34:27.734Z,101886.25
2023-02-15T23:39:30.080Z,101877.28
2023-02-15T23:44:32.743Z,101872.28
2023-02-15T23:49:36.182Z,101886.41
2023-02-15T23:54:38.448Z,101895.34
2023-02-15T23:59:44.269Z,101905.56
